createdAt,value
2022-08-26T00:00:25.103Z,8.4
2022-08-26T00:05:25.096Z,8.9
2022-08-26T00:10:25.833Z,9.1
2022-08-26T00:15:25.104Z,8.6
2022-08-26T00:20:25.111Z,7.7
2022-08-26T00:25:25.089Z,8.5
2022-08-26T00:30:26.496Z,8.5
2022-08-26T00:35:25.106Z,8.3
2022-08-26T00:40:25.217Z,7.5
2022-08-26T00:45:25.151Z,7.5
2022-08-26T00:50:25.102Z,8.6
2022-08-26T00:55:25.090Z,6.5
2022-08-26T01:00:25.098Z,8.6
2022-08-26T01:05:25.088Z,8.4
2022-08-26T01:10:25.113Z,8.4
2022-08-26T01:15:25.086Z,6.4
2022-08-26T01:20:25.108Z,7.7
2022-08-26T01:25:25.101Z,7.7
2022-08-26T01:30:25.102Z,7.7
2022-08-26T01:35:25.099Z,7.6
2022-08-26T01:40:25.130Z,8.8
2022-08-26T01:45:25.167Z,8.3
2022-08-26T01:50:27.598Z,8.4
2022-08-26T01:55:32.084Z,7.6
2022-08-26T02:00:25.095Z,9
2022-08-26T02:05:25.096Z,8.6
2022-08-26T02:10:25.099Z,8.7
2022-08-26T02:15:25.109Z,8.9
2022-08-26T02:20:26.467Z,8.6
2022-08-26T02:25:25.110Z,8
2022-08-26T02:30:25.095Z,8.1
2022-08-26T02:35:25.098Z,7.8
2022-08-26T02:40:25.169Z,6.4
2022-08-26T02:45:25.088Z,7.1
2022-08-26T02:50:25.110Z,7.7
2022-08-26T02:55:25.098Z,8.7
2022-08-26T03:00:25.118Z,8.6
2022-08-26T03:05:25.089Z,7.7
2022-08-26T03:10:26.008Z,8.1
2022-08-26T03:15:25.090Z,7.2
2022-08-26T03:20:25.105Z,7.2
2022-08-26T03:25:25.094Z,7
2022-08-26T03:30:25.105Z,7
2022-08-26T03:35:25.090Z,8.8
2022-08-26T03:40:25.245Z,8.8
2022-08-26T03:45:25.098Z,7.5
2022-08-26T03:50:25.175Z,7
2022-08-26T03:55:25.086Z,7
2022-08-26T04:00:25.104Z,8.5
2022-08-26T04:05:25.094Z,7.4
2022-08-26T04:10:28.869Z,6.9
2022-08-26T04:15:25.086Z,7.4
2022-08-26T04:20:25.156Z,7.9
2022-08-26T04:25:25.104Z,8.4
2022-08-26T04:30:25.112Z,8.3
2022-08-26T04:35:26.211Z,0
2022-08-26T04:40:25.900Z,4.8
2022-08-26T04:45:25.085Z,6.4
2022-08-26T04:50:25.097Z,0
2022-08-26T04:55:28.304Z,5.4
2022-08-26T05:00:25.102Z,5.9
2022-08-26T05:05:25.110Z,6.1
2022-08-26T05:10:25.127Z,6.3
2022-08-26T05:15:25.176Z,4.4
2022-08-26T05:20:25.746Z,9.6
2022-08-26T05:25:25.096Z,7.1
2022-08-26T05:30:25.195Z,7.9
2022-08-26T05:35:25.168Z,9.6
2022-08-26T05:40:25.249Z,9.5
2022-08-26T05:45:25.200Z,9.8
2022-08-26T05:50:25.139Z,8.6
2022-08-26T05:55:25.182Z,8.9
2022-08-26T06:00:25.334Z,6.8
2022-08-26T06:05:25.107Z,7.8
2022-08-26T06:10:33.089Z,4.7
2022-08-26T06:15:25.096Z,7.2
2022-08-26T06:20:25.102Z,6.9
2022-08-26T06:25:25.093Z,8.8
2022-08-26T06:30:25.208Z,8.7
2022-08-26T06:35:25.204Z,7.9
2022-08-26T06:40:25.281Z,7.3
2022-08-26T06:45:25.096Z,5.4
2022-08-26T06:50:25.160Z,6.6
2022-08-26T06:55:27.092Z,7.9
2022-08-26T07:00:25.206Z,9.3
2022-08-26T07:05:25.130Z,11.4
2022-08-26T07:10:25.336Z,8.8
2022-08-26T07:15:27.253Z,10.9
2022-08-26T07:20:25.356Z,9.3
2022-08-26T07:25:25.358Z,8.4
2022-08-26T07:30:25.093Z,8.4
2022-08-26T07:35:25.341Z,7.4
2022-08-26T07:40:25.301Z,9.3
2022-08-26T07:45:25.236Z,9.3
2022-08-26T07:50:49.050Z,10.5
2022-08-26T07:55:25.315Z,10.2
2022-08-26T08:00:25.353Z,7.8
2022-08-26T08:05:33.262Z,7.8
2022-08-26T08:10:25.319Z,8.3
2022-08-26T08:15:25.100Z,8.6
2022-08-26T08:20:25.100Z,9.2
2022-08-26T08:25:25.209Z,8.7
2022-08-26T08:30:25.114Z,8.7
2022-08-26T08:35:25.109Z,10.1
2022-08-26T08:40:25.207Z,8.8
2022-08-26T08:45:25.097Z,9.3
2022-08-26T08:50:25.107Z,9.3
2022-08-26T08:55:25.099Z,8.6
2022-08-26T09:00:30.043Z,10.3
2022-08-26T09:05:25.196Z,10.3
2022-08-26T09:10:25.098Z,14.3
2022-08-26T09:15:26.491Z,14.3
2022-08-26T09:20:25.101Z,7.6
2022-08-26T09:25:25.097Z,7.6
2022-08-26T09:30:25.168Z,10
2022-08-26T09:35:25.095Z,9.7
2022-08-26T09:40:26.977Z,7.9
2022-08-26T09:45:25.095Z,11.6
2022-08-26T09:50:28.733Z,9.9
2022-08-26T09:55:25.089Z,11.1
2022-08-26T10:00:25.101Z,11.7
2022-08-26T10:05:25.099Z,7.9
2022-08-26T10:10:25.102Z,11.1
2022-08-26T10:15:25.088Z,9.1
2022-08-26T10:20:25.096Z,8.6
2022-08-26T10:25:25.086Z,11.2
2022-08-26T10:30:25.109Z,11.6
2022-08-26T10:35:25.098Z,11.6
2022-08-26T10:40:25.123Z,12.6
2022-08-26T10:45:25.089Z,8.6
2022-08-26T10:50:25.102Z,11.3
2022-08-26T10:55:25.104Z,13.1
2022-08-26T11:00:25.102Z,14.2
2022-08-26T11:05:25.092Z,15.5
2022-08-26T11:10:25.097Z,14.9
2022-08-26T11:15:25.125Z,10.8
2022-08-26T11:20:25.108Z,10.5
2022-08-26T11:25:29.263Z,10
2022-08-26T11:30:25.106Z,12.2
2022-08-26T11:35:25.105Z,12.3
2022-08-26T11:40:25.260Z,19.7
2022-08-26T11:45:25.157Z,17
2022-08-26T11:50:25.111Z,15.5
2022-08-26T11:55:25.094Z,12.9
2022-08-26T12:00:25.104Z,13.7
2022-08-26T12:05:25.095Z,20.7
2022-08-26T12:10:25.087Z,15.3
2022-08-26T12:15:25.100Z,9.9
2022-08-26T12:20:25.095Z,16.2
2022-08-26T12:25:25.096Z,12.5
2022-08-26T12:30:26.107Z,8.9
2022-08-26T12:35:25.098Z,20.4
2022-08-26T12:40:25.190Z,20.8
2022-08-26T12:45:25.134Z,19.8
2022-08-26T12:50:25.105Z,27.6
2022-08-26T12:55:25.095Z,20.4
2022-08-26T13:00:26.217Z,26.9
2022-08-26T13:05:25.099Z,37.7
2022-08-26T13:10:27.967Z,30.6
2022-08-26T13:15:25.103Z,26.9
2022-08-26T13:20:25.101Z,18.4
2022-08-26T13:25:25.098Z,19
2022-08-26T13:30:25.116Z,23.1
2022-08-26T13:35:25.103Z,15
2022-08-26T13:40:25.173Z,15.1
2022-08-26T13:45:25.128Z,17.8
2022-08-26T13:50:25.103Z,14.4
2022-08-26T13:55:25.110Z,17.8
2022-08-26T14:00:25.118Z,12.9
2022-08-26T14:05:25.101Z,9.6
2022-08-26T14:10:25.107Z,10.1
2022-08-26T14:15:25.094Z,9.5
2022-08-26T14:20:25.112Z,7.8
2022-08-26T14:25:25.103Z,9.7
2022-08-26T14:30:25.159Z,9.7
2022-08-26T14:35:25.106Z,8.5
2022-08-26T14:40:25.168Z,8.1
2022-08-26T14:45:25.084Z,8.1
2022-08-26T14:50:25.095Z,9.8
2022-08-26T14:55:25.091Z,10.8
2022-08-26T15:00:25.099Z,9.5
2022-08-26T15:05:25.100Z,9.5
2022-08-26T15:10:25.103Z,15.9
2022-08-26T15:15:25.106Z,15.9
2022-08-26T15:20:25.157Z,14.3
2022-08-26T15:25:25.093Z,12.8
2022-08-26T15:30:25.098Z,12.5
2022-08-26T15:35:25.098Z,8.8
2022-08-26T15:40:25.146Z,7.7
2022-08-26T15:45:26.072Z,0
2022-08-26T15:50:25.107Z,4
2022-08-26T15:55:25.099Z,5.2
2022-08-26T16:00:25.109Z,5.2
2022-08-26T16:05:25.161Z,7.2
2022-08-26T16:10:25.097Z,9.4
2022-08-26T16:15:25.094Z,8.9
2022-08-26T16:20:25.114Z,6.5
2022-08-26T16:25:25.115Z,5.2
2022-08-26T16:30:25.095Z,8.1
2022-08-26T16:35:25.096Z,8.5
2022-08-26T16:40:25.172Z,7.7
2022-08-26T16:45:25.092Z,6.9
2022-08-26T16:50:25.111Z,7.4
2022-08-26T16:55:25.085Z,7.1
2022-08-26T17:00:25.101Z,7.6
2022-08-26T17:05:25.090Z,6.2
2022-08-26T17:10:25.097Z,7.9
2022-08-26T17:15:25.096Z,7.9
2022-08-26T17:20:25.096Z,5.7
2022-08-26T17:25:25.102Z,0
2022-08-26T17:30:25.100Z,7.8
2022-08-26T17:35:25.092Z,9.3
2022-08-26T17:40:25.128Z,8.7
2022-08-26T17:45:25.097Z,11.4
2022-08-26T17:50:25.105Z,13.7
2022-08-26T17:55:25.099Z,12
2022-08-26T18:00:25.102Z,9
2022-08-26T18:05:25.095Z,10.5
2022-08-26T18:10:25.103Z,20
2022-08-26T18:15:25.121Z,24.5
2022-08-26T18:20:25.105Z,30.6
2022-08-26T18:25:25.085Z,50.7
2022-08-26T18:30:25.098Z,70.2
2022-08-26T18:35:25.097Z,32.5
2022-08-26T18:40:25.139Z,21.6
2022-08-26T18:45:25.105Z,10.9
2022-08-26T18:50:25.101Z,12.4
2022-08-26T18:55:25.102Z,8.7
2022-08-26T19:00:25.098Z,6.1
2022-08-26T19:05:25.107Z,11.6
2022-08-26T19:10:25.116Z,16
2022-08-26T19:15:25.108Z,12.8
2022-08-26T19:20:25.101Z,10.9
2022-08-26T19:25:25.094Z,10.5
2022-08-26T19:30:25.208Z,9.5
2022-08-26T19:35:25.102Z,7.4
2022-08-26T19:40:25.143Z,6.5
2022-08-26T19:45:25.571Z,0
2022-08-26T19:50:25.102Z,0
2022-08-26T19:55:25.093Z,10.1
2022-08-26T20:00:25.111Z,10.3
2022-08-26T20:05:25.097Z,9
2022-08-26T20:10:25.099Z,12.3
2022-08-26T20:15:25.097Z,12.3
2022-08-26T20:20:26.965Z,9.5
2022-08-26T20:25:25.090Z,7
2022-08-26T20:30:25.098Z,8.1
2022-08-26T20:35:25.094Z,8.2
2022-08-26T20:40:25.127Z,8.2
2022-08-26T20:45:25.093Z,7
2022-08-26T20:50:25.115Z,9.2
2022-08-26T20:55:25.096Z,9.3
2022-08-26T21:00:26.379Z,9.2
2022-08-26T21:05:25.099Z,11.5
2022-08-26T21:10:25.097Z,9
2022-08-26T21:15:25.093Z,9.4
2022-08-26T21:20:25.094Z,11.8
2022-08-26T21:25:25.098Z,10.5
2022-08-26T21:30:25.099Z,10
2022-08-26T21:35:25.091Z,8.6
2022-08-26T21:40:25.163Z,11.3
2022-08-26T21:45:25.139Z,10.2
2022-08-26T21:50:25.103Z,11.2
2022-08-26T21:55:25.093Z,12
2022-08-26T22:00:25.095Z,9.9
2022-08-26T22:05:25.089Z,12.6
2022-08-26T22:10:25.100Z,12.7
2022-08-26T22:15:25.088Z,10.7
2022-08-26T22:20:25.101Z,11.3
2022-08-26T22:25:25.097Z,8.5
2022-08-26T22:30:25.097Z,9.3
2022-08-26T22:35:28.611Z,7.5
2022-08-26T22:40:25.163Z,7.2
2022-08-26T22:45:25.121Z,6.7
2022-08-26T22:50:25.102Z,7.8
2022-08-26T22:55:25.087Z,7.8
2022-08-26T23:00:29.012Z,6.6
2022-08-26T23:05:25.094Z,6.3
2022-08-26T23:10:25.105Z,8
2022-08-26T23:15:25.089Z,7.8
2022-08-26T23:20:25.107Z,7.6
2022-08-26T23:25:25.100Z,8.4
2022-08-26T23:30:25.106Z,9.4
2022-08-26T23:35:25.105Z,11.4
2022-08-26T23:40:25.196Z,11.1
2022-08-26T23:45:25.144Z,11.4
2022-08-26T23:50:25.103Z,15.1
2022-08-26T23:55:25.096Z,11
